sensor_id;sensor_type;location;lat;lon;timestamp;P1;durP1;ratioP1;P2;durP2;ratioP2
68792;SDS011;55778;54.346;10.210;2022-09-09T00:05:41;53.00;;;19.55;;
68792;SDS011;55778;54.346;10.210;2022-09-09T00:08:00;46.67;;;19.25;;
68792;SDS011;55778;54.346;10.210;2022-09-09T00:10:56;48.47;;;20.17;;
68792;SDS011;55778;54.346;10.210;2022-09-09T00:13:38;55.13;;;20.98;;
68792;SDS011;55778;54.346;10.210;2022-09-09T00:16:36;59.83;;;20.33;;
68792;SDS011;55778;54.346;10.210;2022-09-09T00:19:20;57.03;;;22.10;;
68792;SDS011;55778;54.346;10.210;2022-09-09T00:24:45;52.85;;;20.85;;
68792;SDS011;55778;54.346;10.210;2022-09-09T00:28:07;53.20;;;21.05;;
68792;SDS011;55778;54.346;10.210;2022-09-09T00:33:45;54.30;;;20.95;;
68792;SDS011;55778;54.346;10.210;2022-09-09T00:36:27;56.42;;;21.90;;
68792;SDS011;55778;54.346;10.210;2022-09-09T00:39:09;48.53;;;20.63;;
68792;SDS011;55778;54.346;10.210;2022-09-09T00:44:35;52.90;;;21.50;;
68792;SDS011;55778;54.346;10.210;2022-09-09T00:47:50;47.17;;;20.13;;
68792;SDS011;55778;54.346;10.210;2022-09-09T00:51:15;46.33;;;20.75;;
68792;SDS011;55778;54.346;10.210;2022-09-09T00:56:38;50.92;;;22.20;;
68792;SDS011;55778;54.346;10.210;2022-09-09T00:59:48;47.80;;;21.70;;
68792;SDS011;55778;54.346;10.210;2022-09-09T01:02:39;53.45;;;21.83;;
68792;SDS011;55778;54.346;10.210;2022-09-09T01:05:45;46.80;;;21.25;;
68792;SDS011;55778;54.346;10.210;2022-09-09T01:14:38;43.92;;;20.30;;
68792;SDS011;55778;54.346;10.210;2022-09-09T01:17:46;49.47;;;20.70;;
68792;SDS011;55778;54.346;10.210;2022-09-09T01:21:09;45.50;;;20.20;;
68792;SDS011;55778;54.346;10.210;2022-09-09T01:26:52;41.60;;;18.90;;
68792;SDS011;55778;54.346;10.210;2022-09-09T01:33:03;44.55;;;18.98;;
68792;SDS011;55778;54.346;10.210;2022-09-09T01:35:54;45.75;;;19.50;;
68792;SDS011;55778;54.346;10.210;2022-09-09T01:42:00;44.45;;;18.80;;
68792;SDS011;55778;54.346;10.210;2022-09-09T01:45:03;46.00;;;19.60;;
68792;SDS011;55778;54.346;10.210;2022-09-09T01:48:10;44.92;;;19.25;;
68792;SDS011;55778;54.346;10.210;2022-09-09T01:50:39;45.03;;;19.20;;
68792;SDS011;55778;54.346;10.210;2022-09-09T01:53:31;38.13;;;17.27;;
68792;SDS011;55778;54.346;10.210;2022-09-09T02:10:53;41.67;;;17.80;;
68792;SDS011;55778;54.346;10.210;2022-09-09T02:14:04;34.78;;;16.27;;
68792;SDS011;55778;54.346;10.210;2022-09-09T02:17:15;47.55;;;22.58;;
68792;SDS011;55778;54.346;10.210;2022-09-09T02:23:32;35.58;;;16.40;;
68792;SDS011;55778;54.346;10.210;2022-09-09T02:26:27;35.95;;;15.93;;
68792;SDS011;55778;54.346;10.210;2022-09-09T02:32:24;39.88;;;16.38;;
68792;SDS011;55778;54.346;10.210;2022-09-09T02:38:19;57.63;;;23.60;;
68792;SDS011;55778;54.346;10.210;2022-09-09T02:40:58;47.05;;;20.30;;
68792;SDS011;55778;54.346;10.210;2022-09-09T02:43:36;45.67;;;17.50;;
68792;SDS011;55778;54.346;10.210;2022-09-09T02:56:00;45.63;;;17.83;;
68792;SDS011;55778;54.346;10.210;2022-09-09T02:58:59;40.45;;;17.98;;
68792;SDS011;55778;54.346;10.210;2022-09-09T03:01:48;43.20;;;18.58;;
68792;SDS011;55778;54.346;10.210;2022-09-09T03:04:22;42.83;;;18.42;;
68792;SDS011;55778;54.346;10.210;2022-09-09T03:06:53;48.83;;;19.58;;
68792;SDS011;55778;54.346;10.210;2022-09-09T03:10:08;46.63;;;18.50;;
68792;SDS011;55778;54.346;10.210;2022-09-09T03:12:50;47.65;;;20.30;;
68792;SDS011;55778;54.346;10.210;2022-09-09T03:15:42;46.15;;;18.92;;
68792;SDS011;55778;54.346;10.210;2022-09-09T03:18:22;73.97;;;30.40;;
68792;SDS011;55778;54.346;10.210;2022-09-09T03:23:44;54.58;;;20.98;;
68792;SDS011;55778;54.346;10.210;2022-09-09T03:26:52;56.03;;;21.40;;
68792;SDS011;55778;54.346;10.210;2022-09-09T03:29:21;61.40;;;21.73;;
68792;SDS011;55778;54.346;10.210;2022-09-09T03:31:54;56.78;;;21.77;;
68792;SDS011;55778;54.346;10.210;2022-09-09T03:35:03;66.03;;;21.40;;
68792;SDS011;55778;54.346;10.210;2022-09-09T03:37:57;65.47;;;24.35;;
68792;SDS011;55778;54.346;10.210;2022-09-09T03:43:52;63.42;;;22.77;;
68792;SDS011;55778;54.346;10.210;2022-09-09T03:46:41;66.93;;;23.02;;
68792;SDS011;55778;54.346;10.210;2022-09-09T03:49:13;83.22;;;24.63;;
68792;SDS011;55778;54.346;10.210;2022-09-09T03:52:54;76.22;;;25.08;;
68792;SDS011;55778;54.346;10.210;2022-09-09T03:55:35;81.63;;;26.17;;
68792;SDS011;55778;54.346;10.210;2022-09-09T04:01:12;67.20;;;23.00;;
68792;SDS011;55778;54.346;10.210;2022-09-09T04:03:51;63.25;;;22.27;;
68792;SDS011;55778;54.346;10.210;2022-09-09T04:06:32;64.93;;;21.98;;
68792;SDS011;55778;54.346;10.210;2022-09-09T04:09:21;66.28;;;23.20;;
68792;SDS011;55778;54.346;10.210;2022-09-09T04:12:32;70.45;;;22.05;;
68792;SDS011;55778;54.346;10.210;2022-09-09T04:18:32;61.33;;;21.60;;
68792;SDS011;55778;54.346;10.210;2022-09-09T04:21:30;62.97;;;20.88;;
68792;SDS011;55778;54.346;10.210;2022-09-09T04:23:59;68.93;;;22.30;;
68792;SDS011;55778;54.346;10.210;2022-09-09T04:26:42;66.35;;;21.55;;
68792;SDS011;55778;54.346;10.210;2022-09-09T04:29:22;68.45;;;23.05;;
68792;SDS011;55778;54.346;10.210;2022-09-09T04:34:54;70.35;;;21.92;;
68792;SDS011;55778;54.346;10.210;2022-09-09T04:37:19;65.35;;;22.60;;
68792;SDS011;55778;54.346;10.210;2022-09-09T04:39:48;63.88;;;21.73;;
68792;SDS011;55778;54.346;10.210;2022-09-09T04:42:24;68.60;;;22.73;;
68792;SDS011;55778;54.346;10.210;2022-09-09T04:45:18;65.53;;;22.17;;
68792;SDS011;55778;54.346;10.210;2022-09-09T04:47:55;59.72;;;21.60;;
68792;SDS011;55778;54.346;10.210;2022-09-09T04:50:21;67.95;;;21.92;;
68792;SDS011;55778;54.346;10.210;2022-09-09T04:53:10;61.60;;;21.17;;
68792;SDS011;55778;54.346;10.210;2022-09-09T04:55:41;61.38;;;20.95;;
68792;SDS011;55778;54.346;10.210;2022-09-09T04:58:15;58.67;;;21.50;;
68792;SDS011;55778;54.346;10.210;2022-09-09T05:00:40;55.15;;;19.00;;
68792;SDS011;55778;54.346;10.210;2022-09-09T05:03:07;57.45;;;20.48;;
68792;SDS011;55778;54.346;10.210;2022-09-09T05:05:33;56.13;;;19.73;;
68792;SDS011;55778;54.346;10.210;2022-09-09T05:08:06;53.88;;;19.13;;
68792;SDS011;55778;54.346;10.210;2022-09-09T05:10:34;55.97;;;20.25;;
68792;SDS011;55778;54.346;10.210;2022-09-09T05:13:01;56.55;;;20.33;;
68792;SDS011;55778;54.346;10.210;2022-09-09T05:15:29;58.03;;;20.13;;
68792;SDS011;55778;54.346;10.210;2022-09-09T05:17:57;56.75;;;19.63;;
68792;SDS011;55778;54.346;10.210;2022-09-09T05:20:24;54.50;;;19.50;;
68792;SDS011;55778;54.346;10.210;2022-09-09T05:22:52;57.72;;;19.98;;
68792;SDS011;55778;54.346;10.210;2022-09-09T05:25:21;56.10;;;19.75;;
68792;SDS011;55778;54.346;10.210;2022-09-09T05:27:49;55.85;;;20.60;;
68792;SDS011;55778;54.346;10.210;2022-09-09T05:30:16;59.45;;;20.50;;
68792;SDS011;55778;54.346;10.210;2022-09-09T05:32:43;56.67;;;20.55;;
68792;SDS011;55778;54.346;10.210;2022-09-09T05:35:09;59.30;;;21.25;;
68792;SDS011;55778;54.346;10.210;2022-09-09T05:37:35;61.58;;;20.70;;
68792;SDS011;55778;54.346;10.210;2022-09-09T05:40:00;58.22;;;20.05;;
68792;SDS011;55778;54.346;10.210;2022-09-09T05:42:29;54.42;;;20.35;;
68792;SDS011;55778;54.346;10.210;2022-09-09T05:44:55;62.00;;;20.98;;
68792;SDS011;55778;54.346;10.210;2022-09-09T05:47:21;57.65;;;21.05;;
68792;SDS011;55778;54.346;10.210;2022-09-09T05:49:46;57.25;;;20.98;;
68792;SDS011;55778;54.346;10.210;2022-09-09T05:52:14;59.72;;;20.60;;
68792;SDS011;55778;54.346;10.210;2022-09-09T05:54:39;58.00;;;21.02;;
68792;SDS011;55778;54.346;10.210;2022-09-09T05:57:06;61.65;;;23.08;;
68792;SDS011;55778;54.346;10.210;2022-09-09T05:59:31;61.30;;;21.33;;
68792;SDS011;55778;54.346;10.210;2022-09-09T06:01:57;58.03;;;20.52;;
68792;SDS011;55778;54.346;10.210;2022-09-09T06:04:22;55.60;;;20.30;;
68792;SDS011;55778;54.346;10.210;2022-09-09T06:06:50;56.40;;;20.10;;
68792;SDS011;55778;54.346;10.210;2022-09-09T06:09:17;57.92;;;21.08;;
68792;SDS011;55778;54.346;10.210;2022-09-09T06:11:43;58.47;;;21.00;;
68792;SDS011;55778;54.346;10.210;2022-09-09T06:14:11;61.75;;;20.55;;
68792;SDS011;55778;54.346;10.210;2022-09-09T06:16:36;64.05;;;20.85;;
68792;SDS011;55778;54.346;10.210;2022-09-09T06:19:02;59.28;;;20.45;;
68792;SDS011;55778;54.346;10.210;2022-09-09T06:21:34;66.63;;;21.55;;
68792;SDS011;55778;54.346;10.210;2022-09-09T06:24:02;65.53;;;20.73;;
68792;SDS011;55778;54.346;10.210;2022-09-09T06:26:32;68.15;;;21.23;;
68792;SDS011;55778;54.346;10.210;2022-09-09T06:28:59;74.03;;;21.98;;
68792;SDS011;55778;54.346;10.210;2022-09-09T06:31:26;65.75;;;20.83;;
68792;SDS011;55778;54.346;10.210;2022-09-09T06:33:55;73.18;;;20.88;;
68792;SDS011;55778;54.346;10.210;2022-09-09T06:36:22;71.97;;;22.05;;
68792;SDS011;55778;54.346;10.210;2022-09-09T06:38:49;79.45;;;21.88;;
68792;SDS011;55778;54.346;10.210;2022-09-09T06:41:16;68.90;;;21.73;;
68792;SDS011;55778;54.346;10.210;2022-09-09T06:43:43;68.72;;;21.15;;
68792;SDS011;55778;54.346;10.210;2022-09-09T06:48:42;67.03;;;20.77;;
68792;SDS011;55778;54.346;10.210;2022-09-09T06:51:16;63.08;;;20.30;;
68792;SDS011;55778;54.346;10.210;2022-09-09T06:53:43;63.35;;;20.17;;
68792;SDS011;55778;54.346;10.210;2022-09-09T06:58:44;66.60;;;20.95;;
68792;SDS011;55778;54.346;10.210;2022-09-09T07:01:11;64.00;;;20.65;;
68792;SDS011;55778;54.346;10.210;2022-09-09T07:03:38;64.95;;;21.10;;
68792;SDS011;55778;54.346;10.210;2022-09-09T07:06:05;62.90;;;20.55;;
68792;SDS011;55778;54.346;10.210;2022-09-09T07:08:31;63.75;;;21.38;;
68792;SDS011;55778;54.346;10.210;2022-09-09T07:11:07;64.15;;;20.75;;
68792;SDS011;55778;54.346;10.210;2022-09-09T07:13:33;58.92;;;21.08;;
68792;SDS011;55778;54.346;10.210;2022-09-09T07:16:06;63.60;;;20.58;;
68792;SDS011;55778;54.346;10.210;2022-09-09T07:18:36;54.83;;;19.88;;
68792;SDS011;55778;54.346;10.210;2022-09-09T07:21:02;58.78;;;20.00;;
68792;SDS011;55778;54.346;10.210;2022-09-09T07:23:28;56.53;;;20.48;;
68792;SDS011;55778;54.346;10.210;2022-09-09T07:25:55;57.20;;;20.63;;
68792;SDS011;55778;54.346;10.210;2022-09-09T07:28:21;51.70;;;18.88;;
68792;SDS011;55778;54.346;10.210;2022-09-09T07:30:58;46.67;;;17.92;;
68792;SDS011;55778;54.346;10.210;2022-09-09T07:33:25;46.90;;;18.30;;
68792;SDS011;55778;54.346;10.210;2022-09-09T07:35:51;45.72;;;18.38;;
68792;SDS011;55778;54.346;10.210;2022-09-09T07:38:17;45.72;;;17.90;;
68792;SDS011;55778;54.346;10.210;2022-09-09T07:40:43;41.20;;;18.17;;
68792;SDS011;55778;54.346;10.210;2022-09-09T07:43:09;39.97;;;17.65;;
68792;SDS011;55778;54.346;10.210;2022-09-09T07:45:35;42.95;;;18.48;;
68792;SDS011;55778;54.346;10.210;2022-09-09T07:48:01;46.13;;;18.08;;
68792;SDS011;55778;54.346;10.210;2022-09-09T07:50:27;43.75;;;18.02;;
68792;SDS011;55778;54.346;10.210;2022-09-09T07:52:52;38.28;;;17.27;;
68792;SDS011;55778;54.346;10.210;2022-09-09T07:55:19;40.45;;;18.15;;
68792;SDS011;55778;54.346;10.210;2022-09-09T07:57:45;46.58;;;19.48;;
68792;SDS011;55778;54.346;10.210;2022-09-09T08:00:11;41.55;;;18.05;;
68792;SDS011;55778;54.346;10.210;2022-09-09T08:02:39;48.50;;;19.60;;
68792;SDS011;55778;54.346;10.210;2022-09-09T08:05:05;44.85;;;18.92;;
68792;SDS011;55778;54.346;10.210;2022-09-09T08:07:31;39.53;;;17.83;;
68792;SDS011;55778;54.346;10.210;2022-09-09T08:09:56;37.60;;;16.98;;
68792;SDS011;55778;54.346;10.210;2022-09-09T08:12:22;36.95;;;16.65;;
68792;SDS011;55778;54.346;10.210;2022-09-09T08:14:48;31.27;;;15.40;;
68792;SDS011;55778;54.346;10.210;2022-09-09T08:17:13;30.88;;;15.55;;
68792;SDS011;55778;54.346;10.210;2022-09-09T08:19:39;33.53;;;16.08;;
68792;SDS011;55778;54.346;10.210;2022-09-09T08:22:04;34.60;;;16.83;;
68792;SDS011;55778;54.346;10.210;2022-09-09T08:24:30;33.42;;;15.65;;
68792;SDS011;55778;54.346;10.210;2022-09-09T08:26:55;31.80;;;15.85;;
68792;SDS011;55778;54.346;10.210;2022-09-09T08:29:22;27.92;;;14.85;;
68792;SDS011;55778;54.346;10.210;2022-09-09T08:31:49;27.85;;;14.15;;
68792;SDS011;55778;54.346;10.210;2022-09-09T08:34:19;28.60;;;15.07;;
68792;SDS011;55778;54.346;10.210;2022-09-09T08:36:46;27.20;;;13.75;;
68792;SDS011;55778;54.346;10.210;2022-09-09T08:39:17;27.13;;;12.73;;
68792;SDS011;55778;54.346;10.210;2022-09-09T08:44:32;23.67;;;12.52;;
68792;SDS011;55778;54.346;10.210;2022-09-09T08:55:59;22.35;;;13.60;;
68792;SDS011;55778;54.346;10.210;2022-09-09T08:58:31;20.50;;;12.40;;
68792;SDS011;55778;54.346;10.210;2022-09-09T09:06:52;25.55;;;13.57;;
68792;SDS011;55778;54.346;10.210;2022-09-09T09:12:21;23.80;;;14.00;;
68792;SDS011;55778;54.346;10.210;2022-09-09T09:14:50;25.92;;;13.88;;
68792;SDS011;55778;54.346;10.210;2022-09-09T09:17:17;24.23;;;13.52;;
68792;SDS011;55778;54.346;10.210;2022-09-09T09:19:44;22.77;;;13.95;;
68792;SDS011;55778;54.346;10.210;2022-09-09T09:22:16;22.98;;;13.48;;
68792;SDS011;55778;54.346;10.210;2022-09-09T09:24:51;22.58;;;13.02;;
68792;SDS011;55778;54.346;10.210;2022-09-09T09:27:30;21.38;;;13.35;;
68792;SDS011;55778;54.346;10.210;2022-09-09T09:29:59;20.42;;;13.38;;
68792;SDS011;55778;54.346;10.210;2022-09-09T09:32:26;22.00;;;14.02;;
68792;SDS011;55778;54.346;10.210;2022-09-09T09:34:56;20.88;;;13.82;;
68792;SDS011;55778;54.346;10.210;2022-09-09T09:37:28;22.92;;;14.13;;
68792;SDS011;55778;54.346;10.210;2022-09-09T09:39:56;20.30;;;14.38;;
68792;SDS011;55778;54.346;10.210;2022-09-09T09:42:34;20.13;;;13.88;;
68792;SDS011;55778;54.346;10.210;2022-09-09T09:45:16;21.63;;;14.60;;
68792;SDS011;55778;54.346;10.210;2022-09-09T09:47:58;16.80;;;13.18;;
68792;SDS011;55778;54.346;10.210;2022-09-09T09:50:27;21.65;;;13.63;;
68792;SDS011;55778;54.346;10.210;2022-09-09T09:52:56;22.45;;;14.93;;
68792;SDS011;55778;54.346;10.210;2022-09-09T09:55:24;22.02;;;14.52;;
68792;SDS011;55778;54.346;10.210;2022-09-09T09:57:50;17.23;;;13.02;;
68792;SDS011;55778;54.346;10.210;2022-09-09T10:00:21;18.75;;;13.10;;
68792;SDS011;55778;54.346;10.210;2022-09-09T10:02:48;22.75;;;13.15;;
68792;SDS011;55778;54.346;10.210;2022-09-09T10:08:00;15.80;;;11.43;;
68792;SDS011;55778;54.346;10.210;2022-09-09T10:10:33;16.45;;;11.02;;
68792;SDS011;55778;54.346;10.210;2022-09-09T10:13:13;14.45;;;11.20;;
68792;SDS011;55778;54.346;10.210;2022-09-09T10:18:47;12.52;;;10.48;;
68792;SDS011;55778;54.346;10.210;2022-09-09T10:21:22;13.93;;;9.70;;
68792;SDS011;55778;54.346;10.210;2022-09-09T10:35:02;9.10;;;6.85;;
68792;SDS011;55778;54.346;10.210;2022-09-09T10:43:04;6.30;;;5.43;;
68792;SDS011;55778;54.346;10.210;2022-09-09T10:45:45;6.90;;;5.32;;
68792;SDS011;55778;54.346;10.210;2022-09-09T10:54:32;5.97;;;4.90;;
68792;SDS011;55778;54.346;10.210;2022-09-09T10:57:13;7.20;;;4.60;;
68792;SDS011;55778;54.346;10.210;2022-09-09T10:59:42;5.30;;;3.42;;
68792;SDS011;55778;54.346;10.210;2022-09-09T11:07:18;4.10;;;2.90;;
68792;SDS011;55778;54.346;10.210;2022-09-09T11:09:54;2.90;;;2.50;;
68792;SDS011;55778;54.346;10.210;2022-09-09T11:12:26;4.70;;;2.83;;
68792;SDS011;55778;54.346;10.210;2022-09-09T11:14:56;2.78;;;2.05;;
68792;SDS011;55778;54.346;10.210;2022-09-09T11:17:46;2.88;;;2.00;;
68792;SDS011;55778;54.346;10.210;2022-09-09T11:20:15;3.90;;;2.20;;
68792;SDS011;55778;54.346;10.210;2022-09-09T11:22:46;3.83;;;2.20;;
68792;SDS011;55778;54.346;10.210;2022-09-09T11:25:23;4.10;;;2.00;;
68792;SDS011;55778;54.346;10.210;2022-09-09T11:28:02;3.08;;;1.40;;
68792;SDS011;55778;54.346;10.210;2022-09-09T11:41:44;1.85;;;1.17;;
68792;SDS011;55778;54.346;10.210;2022-09-09T11:44:12;2.90;;;1.83;;
68792;SDS011;55778;54.346;10.210;2022-09-09T11:46:46;2.85;;;1.60;;
68792;SDS011;55778;54.346;10.210;2022-09-09T11:49:26;4.43;;;1.60;;
68792;SDS011;55778;54.346;10.210;2022-09-09T11:51:56;2.40;;;1.15;;
68792;SDS011;55778;54.346;10.210;2022-09-09T11:54:29;3.25;;;1.40;;
68792;SDS011;55778;54.346;10.210;2022-09-09T11:56:57;2.72;;;1.30;;
68792;SDS011;55778;54.346;10.210;2022-09-09T11:59:23;2.42;;;1.40;;
68792;SDS011;55778;54.346;10.210;2022-09-09T12:01:55;2.75;;;1.13;;
68792;SDS011;55778;54.346;10.210;2022-09-09T12:06:52;4.03;;;1.30;;
68792;SDS011;55778;54.346;10.210;2022-09-09T12:09:31;3.05;;;1.20;;
68792;SDS011;55778;54.346;10.210;2022-09-09T12:12:07;1.50;;;1.10;;
68792;SDS011;55778;54.346;10.210;2022-09-09T12:17:51;1.40;;;1.20;;
68792;SDS011;55778;54.346;10.210;2022-09-09T12:22:57;3.22;;;0.90;;
68792;SDS011;55778;54.346;10.210;2022-09-09T12:25:56;2.58;;;0.93;;
68792;SDS011;55778;54.346;10.210;2022-09-09T12:31:20;2.60;;;1.42;;
68792;SDS011;55778;54.346;10.210;2022-09-09T12:33:51;1.42;;;1.00;;
68792;SDS011;55778;54.346;10.210;2022-09-09T12:36:18;2.28;;;1.30;;
68792;SDS011;55778;54.346;10.210;2022-09-09T12:38:46;2.75;;;1.80;;
68792;SDS011;55778;54.346;10.210;2022-09-09T12:41:30;3.35;;;1.23;;
68792;SDS011;55778;54.346;10.210;2022-09-09T12:44:05;3.00;;;1.70;;
68792;SDS011;55778;54.346;10.210;2022-09-09T12:46:38;1.38;;;0.90;;
68792;SDS011;55778;54.346;10.210;2022-09-09T12:51:51;2.22;;;0.75;;
68792;SDS011;55778;54.346;10.210;2022-09-09T12:54:17;1.92;;;0.70;;
68792;SDS011;55778;54.346;10.210;2022-09-09T12:56:45;3.17;;;0.75;;
68792;SDS011;55778;54.346;10.210;2022-09-09T12:59:24;1.67;;;0.80;;
68792;SDS011;55778;54.346;10.210;2022-09-09T13:01:55;1.63;;;0.80;;
68792;SDS011;55778;54.346;10.210;2022-09-09T13:04:23;2.90;;;0.80;;
68792;SDS011;55778;54.346;10.210;2022-09-09T13:06:49;2.65;;;0.90;;
68792;SDS011;55778;54.346;10.210;2022-09-09T13:09:14;1.88;;;0.80;;
68792;SDS011;55778;54.346;10.210;2022-09-09T13:11:48;1.88;;;0.95;;
68792;SDS011;55778;54.346;10.210;2022-09-09T13:14:28;2.97;;;0.90;;
68792;SDS011;55778;54.346;10.210;2022-09-09T13:16:58;1.65;;;1.00;;
68792;SDS011;55778;54.346;10.210;2022-09-09T13:19:25;1.55;;;0.70;;
68792;SDS011;55778;54.346;10.210;2022-09-09T13:21:54;2.72;;;1.20;;
68792;SDS011;55778;54.346;10.210;2022-09-09T13:26:58;1.67;;;0.70;;
68792;SDS011;55778;54.346;10.210;2022-09-09T13:29:27;2.47;;;0.98;;
68792;SDS011;55778;54.346;10.210;2022-09-09T13:32:06;1.60;;;0.80;;
68792;SDS011;55778;54.346;10.210;2022-09-09T13:34:50;1.95;;;0.80;;
68792;SDS011;55778;54.346;10.210;2022-09-09T13:37:23;2.63;;;1.00;;
68792;SDS011;55778;54.346;10.210;2022-09-09T13:39:52;0.85;;;0.70;;
68792;SDS011;55778;54.346;10.210;2022-09-09T13:42:24;2.08;;;0.85;;
68792;SDS011;55778;54.346;10.210;2022-09-09T13:44:51;2.28;;;1.00;;
68792;SDS011;55778;54.346;10.210;2022-09-09T13:47:20;1.25;;;0.80;;
68792;SDS011;55778;54.346;10.210;2022-09-09T13:49:51;1.90;;;0.80;;
68792;SDS011;55778;54.346;10.210;2022-09-09T13:52:17;3.10;;;1.00;;
68792;SDS011;55778;54.346;10.210;2022-09-09T13:54:47;2.83;;;1.00;;
68792;SDS011;55778;54.346;10.210;2022-09-09T13:57:17;2.65;;;1.27;;
68792;SDS011;55778;54.346;10.210;2022-09-09T13:59:47;2.15;;;0.80;;
68792;SDS011;55778;54.346;10.210;2022-09-09T14:02:14;2.00;;;1.08;;
68792;SDS011;55778;54.346;10.210;2022-09-09T14:04:39;3.20;;;1.08;;
68792;SDS011;55778;54.346;10.210;2022-09-09T14:07:08;2.55;;;1.00;;
68792;SDS011;55778;54.346;10.210;2022-09-09T14:09:36;3.25;;;1.05;;
68792;SDS011;55778;54.346;10.210;2022-09-09T14:12:01;2.38;;;0.90;;
68792;SDS011;55778;54.346;10.210;2022-09-09T14:14:27;2.60;;;0.98;;
68792;SDS011;55778;54.346;10.210;2022-09-09T14:16:52;1.90;;;1.08;;
68792;SDS011;55778;54.346;10.210;2022-09-09T14:19:17;2.20;;;0.80;;
68792;SDS011;55778;54.346;10.210;2022-09-09T14:21:43;3.15;;;1.10;;
68792;SDS011;55778;54.346;10.210;2022-09-09T14:24:08;2.97;;;1.40;;
68792;SDS011;55778;54.346;10.210;2022-09-09T14:26:34;3.00;;;1.23;;
68792;SDS011;55778;54.346;10.210;2022-09-09T14:28:59;2.65;;;0.90;;
68792;SDS011;55778;54.346;10.210;2022-09-09T14:31:26;1.67;;;0.70;;
68792;SDS011;55778;54.346;10.210;2022-09-09T14:33:52;1.80;;;1.17;;
68792;SDS011;55778;54.346;10.210;2022-09-09T14:36:18;1.40;;;0.60;;
68792;SDS011;55778;54.346;10.210;2022-09-09T14:38:43;0.98;;;0.68;;
68792;SDS011;55778;54.346;10.210;2022-09-09T14:41:10;1.80;;;0.77;;
68792;SDS011;55778;54.346;10.210;2022-09-09T14:43:38;1.42;;;0.50;;
68792;SDS011;55778;54.346;10.210;2022-09-09T14:46:04;1.35;;;0.60;;
68792;SDS011;55778;54.346;10.210;2022-09-09T14:48:31;2.33;;;0.70;;
68792;SDS011;55778;54.346;10.210;2022-09-09T14:51:03;1.90;;;0.70;;
68792;SDS011;55778;54.346;10.210;2022-09-09T14:53:40;1.30;;;0.77;;
68792;SDS011;55778;54.346;10.210;2022-09-09T14:58:39;2.55;;;0.90;;
68792;SDS011;55778;54.346;10.210;2022-09-09T15:01:06;2.20;;;1.00;;
68792;SDS011;55778;54.346;10.210;2022-09-09T15:03:42;2.13;;;1.08;;
68792;SDS011;55778;54.346;10.210;2022-09-09T15:06:14;1.85;;;1.10;;
68792;SDS011;55778;54.346;10.210;2022-09-09T15:08:41;4.10;;;1.33;;
68792;SDS011;55778;54.346;10.210;2022-09-09T15:11:07;4.00;;;1.60;;
68792;SDS011;55778;54.346;10.210;2022-09-09T15:13:35;3.92;;;1.38;;
68792;SDS011;55778;54.346;10.210;2022-09-09T15:16:09;2.05;;;1.30;;
68792;SDS011;55778;54.346;10.210;2022-09-09T15:18:34;2.75;;;1.23;;
68792;SDS011;55778;54.346;10.210;2022-09-09T15:21:04;2.42;;;1.38;;
68792;SDS011;55778;54.346;10.210;2022-09-09T15:23:33;1.60;;;1.33;;
68792;SDS011;55778;54.346;10.210;2022-09-09T15:28:24;2.80;;;1.30;;
68792;SDS011;55778;54.346;10.210;2022-09-09T15:30:50;2.45;;;1.30;;
68792;SDS011;55778;54.346;10.210;2022-09-09T15:33:17;5.90;;;1.40;;
68792;SDS011;55778;54.346;10.210;2022-09-09T15:38:12;5.25;;;2.53;;
68792;SDS011;55778;54.346;10.210;2022-09-09T15:40:41;2.53;;;1.90;;
68792;SDS011;55778;54.346;10.210;2022-09-09T15:43:07;2.58;;;2.10;;
68792;SDS011;55778;54.346;10.210;2022-09-09T15:45:34;3.95;;;2.10;;
68792;SDS011;55778;54.346;10.210;2022-09-09T15:48:00;4.85;;;2.30;;
68792;SDS011;55778;54.346;10.210;2022-09-09T15:50:27;3.85;;;2.63;;
68792;SDS011;55778;54.346;10.210;2022-09-09T15:52:56;4.07;;;2.55;;
68792;SDS011;55778;54.346;10.210;2022-09-09T15:55:22;5.05;;;2.80;;
68792;SDS011;55778;54.346;10.210;2022-09-09T15:57:49;4.57;;;2.58;;
68792;SDS011;55778;54.346;10.210;2022-09-09T16:00:15;4.70;;;3.20;;
68792;SDS011;55778;54.346;10.210;2022-09-09T16:02:40;4.80;;;2.72;;
68792;SDS011;55778;54.346;10.210;2022-09-09T16:05:06;4.45;;;2.90;;
68792;SDS011;55778;54.346;10.210;2022-09-09T16:07:31;3.80;;;2.85;;
68792;SDS011;55778;54.346;10.210;2022-09-09T16:09:57;4.78;;;2.88;;
68792;SDS011;55778;54.346;10.210;2022-09-09T16:12:22;4.97;;;3.20;;
68792;SDS011;55778;54.346;10.210;2022-09-09T16:14:48;5.43;;;2.90;;
68792;SDS011;55778;54.346;10.210;2022-09-09T16:17:13;5.20;;;3.10;;
68792;SDS011;55778;54.346;10.210;2022-09-09T16:19:40;5.75;;;3.40;;
68792;SDS011;55778;54.346;10.210;2022-09-09T16:22:05;4.07;;;3.03;;
68792;SDS011;55778;54.346;10.210;2022-09-09T16:24:32;5.55;;;3.22;;
68792;SDS011;55778;54.346;10.210;2022-09-09T16:26:57;4.30;;;2.75;;
68792;SDS011;55778;54.346;10.210;2022-09-09T16:29:23;4.63;;;2.70;;
68792;SDS011;55778;54.346;10.210;2022-09-09T16:31:52;3.33;;;2.57;;
68792;SDS011;55778;54.346;10.210;2022-09-09T16:34:18;6.72;;;3.38;;
68792;SDS011;55778;54.346;10.210;2022-09-09T16:36:44;5.40;;;3.40;;
68792;SDS011;55778;54.346;10.210;2022-09-09T16:39:15;4.85;;;3.42;;
68792;SDS011;55778;54.346;10.210;2022-09-09T16:41:49;5.27;;;3.10;;
68792;SDS011;55778;54.346;10.210;2022-09-09T16:44:19;4.47;;;3.25;;
68792;SDS011;55778;54.346;10.210;2022-09-09T16:46:45;3.35;;;2.90;;
68792;SDS011;55778;54.346;10.210;2022-09-09T16:49:18;4.72;;;2.92;;
68792;SDS011;55778;54.346;10.210;2022-09-09T16:51:49;2.78;;;2.40;;
68792;SDS011;55778;54.346;10.210;2022-09-09T16:54:20;3.08;;;2.20;;
68792;SDS011;55778;54.346;10.210;2022-09-09T16:56:51;3.78;;;2.30;;
68792;SDS011;55778;54.346;10.210;2022-09-09T16:59:20;3.50;;;2.17;;
68792;SDS011;55778;54.346;10.210;2022-09-09T17:01:47;3.85;;;2.40;;
68792;SDS011;55778;54.346;10.210;2022-09-09T17:04:24;4.45;;;2.45;;
68792;SDS011;55778;54.346;10.210;2022-09-09T17:06:52;4.07;;;2.40;;
68792;SDS011;55778;54.346;10.210;2022-09-09T17:09:19;3.63;;;2.50;;
68792;SDS011;55778;54.346;10.210;2022-09-09T17:11:45;4.78;;;3.00;;
68792;SDS011;55778;54.346;10.210;2022-09-09T17:14:13;4.15;;;3.10;;
68792;SDS011;55778;54.346;10.210;2022-09-09T17:16:44;4.97;;;3.10;;
68792;SDS011;55778;54.346;10.210;2022-09-09T17:19:12;4.75;;;3.00;;
68792;SDS011;55778;54.346;10.210;2022-09-09T17:21:37;5.13;;;2.53;;
68792;SDS011;55778;54.346;10.210;2022-09-09T17:24:14;5.40;;;2.78;;
68792;SDS011;55778;54.346;10.210;2022-09-09T17:26:40;4.22;;;2.80;;
68792;SDS011;55778;54.346;10.210;2022-09-09T17:29:06;4.63;;;2.97;;
68792;SDS011;55778;54.346;10.210;2022-09-09T17:31:41;5.05;;;2.72;;
68792;SDS011;55778;54.346;10.210;2022-09-09T17:34:09;3.67;;;2.72;;
68792;SDS011;55778;54.346;10.210;2022-09-09T17:36:35;4.88;;;2.95;;
68792;SDS011;55778;54.346;10.210;2022-09-09T17:39:04;4.40;;;2.87;;
68792;SDS011;55778;54.346;10.210;2022-09-09T17:41:32;5.53;;;3.47;;
68792;SDS011;55778;54.346;10.210;2022-09-09T17:44:00;4.07;;;3.37;;
68792;SDS011;55778;54.346;10.210;2022-09-09T17:46:44;6.10;;;4.70;;
68792;SDS011;55778;54.346;10.210;2022-09-09T17:49:22;6.13;;;4.10;;
68792;SDS011;55778;54.346;10.210;2022-09-09T17:51:48;6.68;;;4.50;;